Bramhall, United Kingdom
Current Conditions -  °F | °C
As of 12:50 PM on Thursday 27 Nov 2014 (Local Time) from EGCC Reporting Station
Haze Haze  
Wind Chill: 46°   Ceiling: 600
Heat Index: 46°   Visibility: 3mi
Dew Point: 46°   Wind: 3mph
Humidity: 100%   Direction: NA
Pressure: 29.56"   Gusts: NA
Location:  53.36°N, 2.16°W
Report Text: EGCC 271250Z VRB03KT 4800 BR FEW004 BKN006 08/08 Q1001
Loading
Personal Weather Stations






























Interactive Weather Map New forecast layout! Learn more

10-Day Weather Forecast

Advertisements
Track Severe Weather on mobile